createdAt,value
2017-10-19T00:00:20.095Z,55.77
2017-10-19T00:02:49.495Z,42.90
2017-10-19T00:05:18.757Z,50.67
2017-10-19T00:07:47.824Z,37.97
2017-10-19T00:10:16.893Z,46.50
2017-10-19T00:12:46.312Z,39.40
2017-10-19T00:15:15.557Z,33.23
2017-10-19T00:17:44.887Z,36.30
2017-10-19T00:20:14.090Z,37.60
2017-10-19T00:22:43.206Z,44.20
2017-10-19T00:25:12.292Z,36.47
2017-10-19T00:27:41.403Z,39.10
2017-10-19T00:30:11.446Z,42.27
2017-10-19T00:32:40.523Z,43.73
2017-10-19T00:35:09.755Z,41.23
2017-10-19T00:37:38.862Z,37.90
2017-10-19T00:40:07.968Z,50.70
2017-10-19T00:42:37.869Z,41.60
2017-10-19T00:45:07.691Z,41.23
2017-10-19T00:47:36.792Z,31.17
2017-10-19T00:50:05.889Z,31.40
2017-10-19T00:52:35.596Z,35.93
2017-10-19T00:55:04.699Z,20.07
2017-10-19T00:57:33.796Z,21.10
2017-10-19T01:00:02.954Z,52.40
2017-10-19T01:02:32.072Z,23.57
2017-10-19T01:05:08.065Z,26.93
2017-10-19T01:07:37.206Z,33.67
2017-10-19T01:10:06.296Z,34.43
2017-10-19T01:12:40.060Z,26.43
2017-10-19T01:15:19.328Z,24.43
2017-10-19T01:17:48.530Z,24.80
2017-10-19T01:20:18.558Z,29.20
2017-10-19T01:22:48.175Z,22.30
2017-10-19T01:25:17.631Z,26.73
2017-10-19T01:27:53.001Z,35.97
2017-10-19T01:30:23.941Z,19.20
2017-10-19T01:32:53.236Z,25.43
2017-10-19T01:35:22.483Z,22.23
2017-10-19T01:37:51.749Z,40.53
2017-10-19T01:40:28.968Z,22.27
2017-10-19T01:42:58.157Z,33.03
2017-10-19T01:45:27.507Z,12.33
2017-10-19T01:48:03.749Z,22.87
2017-10-19T01:50:32.930Z,13.00
2017-10-19T01:53:02.331Z,16.47
2017-10-19T01:55:31.626Z,33.40
2017-10-19T01:58:00.878Z,37.30
2017-10-19T02:00:36.894Z,10.33
2017-10-19T02:03:06.124Z,6.63
2017-10-19T02:05:35.268Z,9.27
2017-10-19T02:08:04.991Z,6.40
2017-10-19T02:10:47.560Z,2.57
2017-10-19T02:13:20.047Z,4.70
2017-10-19T02:15:49.776Z,7.03
2017-10-19T02:18:26.372Z,7.37
2017-10-19T02:20:55.507Z,10.00
2017-10-19T02:23:24.619Z,4.00
2017-10-19T02:25:53.964Z,6.20
2017-10-19T02:28:29.518Z,7.00
2017-10-19T02:30:58.752Z,14.90
2017-10-19T02:33:28.113Z,16.00
2017-10-19T02:36:03.292Z,5.73
2017-10-19T02:38:32.428Z,8.77
2017-10-19T02:41:09.214Z,14.93
2017-10-19T02:43:38.409Z,7.67
2017-10-19T02:46:14.957Z,11.63
2017-10-19T02:48:44.113Z,13.83
2017-10-19T02:51:13.205Z,7.37
2017-10-19T02:53:48.536Z,13.53
2017-10-19T02:56:17.907Z,8.50
2017-10-19T02:58:47.090Z,8.47
2017-10-19T03:01:17.974Z,11.63
2017-10-19T03:03:47.291Z,13.50
2017-10-19T03:06:16.536Z,14.13
2017-10-19T03:08:45.696Z,8.27
2017-10-19T03:11:14.884Z,15.03
2017-10-19T03:13:44.176Z,12.33
2017-10-19T03:16:13.497Z,11.80
2017-10-19T03:18:43.232Z,19.80
2017-10-19T03:21:12.382Z,13.90
2017-10-19T03:23:41.589Z,20.07
2017-10-19T03:26:10.712Z,14.50
2017-10-19T03:28:39.833Z,14.50
2017-10-19T03:31:09.787Z,25.33
2017-10-19T03:33:38.989Z,16.03
2017-10-19T03:36:08.145Z,19.43
2017-10-19T03:38:37.285Z,17.60
2017-10-19T03:41:06.432Z,22.63
2017-10-19T03:43:35.579Z,22.43
2017-10-19T03:46:18.091Z,38.30
2017-10-19T03:48:56.547Z,23.20
2017-10-19T03:51:25.665Z,11.07
2017-10-19T03:53:54.783Z,16.10
2017-10-19T03:56:23.942Z,16.90
2017-10-19T03:58:53.076Z,18.00
2017-10-19T04:01:22.268Z,13.47
2017-10-19T04:03:51.412Z,16.37
2017-10-19T04:06:20.634Z,21.60
2017-10-19T04:08:50.669Z,17.70
2017-10-19T04:11:19.799Z,13.37
2017-10-19T04:13:48.940Z,30.13
2017-10-19T04:16:18.102Z,29.53
2017-10-19T04:18:47.253Z,44.17
2017-10-19T04:21:16.388Z,44.00
2017-10-19T04:23:45.536Z,113.37
2017-10-19T04:26:15.515Z,73.73
2017-10-19T04:28:45.359Z,52.73
2017-10-19T04:31:14.495Z,48.43
2017-10-19T04:33:45.535Z,49.53
2017-10-19T04:36:14.679Z,62.53
2017-10-19T04:38:43.816Z,50.17
2017-10-19T04:41:14.612Z,28.20
2017-10-19T04:43:44.682Z,52.60
2017-10-19T04:46:13.805Z,35.17
2017-10-19T04:48:42.957Z,26.53
2017-10-19T04:51:15.749Z,33.10
2017-10-19T04:53:51.225Z,27.70
2017-10-19T04:56:20.391Z,46.53
2017-10-19T04:59:03.357Z,48.87
2017-10-19T05:01:32.733Z,47.60
2017-10-19T05:04:01.887Z,65.00
2017-10-19T05:06:31.049Z,43.60
2017-10-19T05:09:00.244Z,36.73
2017-10-19T05:11:29.488Z,25.20
2017-10-19T05:13:58.652Z,41.03
2017-10-19T05:16:27.909Z,28.63
2017-10-19T05:18:57.062Z,40.87
2017-10-19T05:21:26.851Z,30.37
2017-10-19T05:23:55.993Z,35.87
2017-10-19T05:26:25.119Z,35.73
2017-10-19T05:28:54.228Z,58.33
2017-10-19T05:31:25.019Z,40.20
2017-10-19T05:33:55.052Z,36.13
2017-10-19T05:36:24.303Z,38.77
2017-10-19T05:39:06.448Z,30.03
2017-10-19T05:41:35.539Z,33.27
2017-10-19T05:44:04.642Z,24.57
2017-10-19T05:46:33.721Z,39.17
2017-10-19T05:49:06.108Z,39.53
2017-10-19T05:51:48.166Z,37.07
2017-10-19T05:54:17.291Z,42.47
2017-10-19T05:56:47.149Z,16.40
2017-10-19T05:59:16.254Z,29.47
2017-10-19T06:01:53.318Z,32.47
2017-10-19T06:04:27.624Z,46.70
2017-10-19T06:06:56.744Z,27.83
2017-10-19T06:09:31.829Z,42.37
2017-10-19T06:12:01.156Z,47.00
2017-10-19T06:14:33.203Z,78.97
2017-10-19T06:17:04.443Z,47.60
2017-10-19T06:19:34.045Z,86.13
2017-10-19T06:22:10.975Z,91.13
2017-10-19T06:24:40.544Z,34.17
2017-10-19T06:27:11.817Z,32.43
2017-10-19T06:29:47.992Z,27.20
2017-10-19T06:32:17.421Z,17.90
2017-10-19T06:34:46.519Z,23.30
2017-10-19T06:37:15.781Z,19.70
2017-10-19T06:39:45.136Z,34.93
2017-10-19T06:42:14.444Z,15.30
2017-10-19T06:44:43.854Z,17.50
2017-10-19T06:47:13.367Z,20.97
2017-10-19T06:49:42.694Z,36.60
2017-10-19T06:52:12.302Z,19.80
2017-10-19T06:54:54.704Z,38.37
2017-10-19T06:57:25.612Z,35.00
2017-10-19T06:59:55.877Z,13.80
2017-10-19T07:02:40.789Z,2.70
2017-10-19T07:05:10.003Z,11.57
2017-10-19T07:07:47.656Z,2.30
2017-10-19T07:10:16.746Z,3.10
2017-10-19T07:12:50.778Z,3.37
2017-10-19T07:15:20.139Z,6.77
2017-10-19T07:17:56.578Z,5.33
2017-10-19T07:20:26.336Z,5.90
2017-10-19T07:22:55.408Z,13.40
2017-10-19T07:25:24.799Z,5.17
2017-10-19T07:28:06.164Z,7.03
2017-10-19T07:30:35.288Z,3.73
2017-10-19T07:33:05.421Z,6.10
2017-10-19T07:35:34.860Z,1.87
2017-10-19T07:38:04.753Z,3.87
2017-10-19T07:40:41.094Z,4.70
2017-10-19T07:43:10.206Z,4.30
2017-10-19T07:45:39.331Z,3.70
2017-10-19T07:48:08.585Z,7.87
2017-10-19T07:50:38.171Z,9.47
2017-10-19T07:53:07.273Z,4.60
2017-10-19T07:55:36.381Z,2.97
2017-10-19T07:58:05.786Z,9.73
2017-10-19T08:00:34.980Z,2.13
2017-10-19T08:03:04.929Z,3.60
2017-10-19T08:05:34.005Z,6.30
2017-10-19T08:08:03.127Z,4.03
2017-10-19T08:10:32.237Z,9.10
2017-10-19T08:13:13.604Z,13.83
2017-10-19T08:15:43.030Z,10.00
2017-10-19T08:18:13.108Z,6.93
2017-10-19T08:20:42.189Z,7.03
2017-10-19T08:23:25.072Z,6.37
2017-10-19T08:25:54.331Z,3.93
2017-10-19T08:28:23.432Z,4.50
2017-10-19T08:30:52.536Z,11.43
2017-10-19T08:33:22.084Z,4.93
2017-10-19T08:35:51.547Z,9.13
2017-10-19T08:38:20.680Z,4.87
2017-10-19T08:40:49.969Z,2.70
2017-10-19T08:43:26.386Z,2.97
2017-10-19T08:45:56.365Z,4.60
2017-10-19T08:48:25.605Z,4.23
2017-10-19T08:50:54.743Z,24.47
2017-10-19T08:53:23.930Z,7.73
2017-10-19T08:56:00.356Z,10.43
2017-10-19T08:58:29.459Z,5.10
2017-10-19T09:00:58.677Z,3.70
2017-10-19T09:03:34.654Z,4.30
2017-10-19T09:06:04.349Z,3.93
2017-10-19T09:08:33.449Z,2.33
2017-10-19T09:11:02.537Z,8.33
2017-10-19T09:13:47.527Z,3.27
2017-10-19T09:16:16.727Z,5.53
2017-10-19T09:18:46.397Z,3.70
2017-10-19T09:21:21.472Z,2.07
2017-10-19T09:23:50.567Z,13.90
2017-10-19T09:26:19.700Z,1.30
2017-10-19T09:28:49.260Z,2.80
2017-10-19T09:31:18.811Z,3.10
2017-10-19T09:33:47.922Z,8.40
2017-10-19T09:36:17.047Z,4.10
2017-10-19T09:38:46.704Z,4.47
2017-10-19T09:41:16.350Z,1.87
2017-10-19T09:43:46.178Z,2.43
2017-10-19T09:46:15.399Z,11.00
2017-10-19T09:48:44.548Z,19.23
2017-10-19T09:51:14.599Z,2.73
2017-10-19T09:53:53.994Z,5.37
2017-10-19T09:56:23.186Z,4.17
2017-10-19T09:58:52.361Z,4.43
2017-10-19T10:01:25.589Z,8.27
2017-10-19T10:03:54.884Z,2.07
2017-10-19T10:06:24.000Z,5.20
2017-10-19T10:08:54.660Z,6.77
2017-10-19T10:11:23.953Z,3.20
2017-10-19T10:13:53.044Z,6.63
2017-10-19T10:16:22.394Z,17.37
2017-10-19T10:18:52.451Z,23.97
2017-10-19T10:21:21.597Z,25.03
2017-10-19T10:24:07.105Z,22.00
2017-10-19T10:26:36.212Z,19.20
2017-10-19T10:29:13.545Z,20.83
2017-10-19T10:31:48.782Z,3.53
2017-10-19T10:34:18.566Z,1.40
2017-10-19T10:36:48.060Z,9.23
2017-10-19T10:39:17.489Z,5.30
2017-10-19T10:41:46.886Z,2.67
2017-10-19T10:44:22.389Z,6.63
2017-10-19T10:46:51.723Z,21.13
2017-10-19T10:49:20.786Z,13.03
2017-10-19T10:51:51.600Z,15.33
2017-10-19T10:54:20.735Z,13.97
2017-10-19T10:56:49.855Z,8.40
2017-10-19T10:59:18.964Z,4.33
2017-10-19T11:01:48.104Z,12.10
2017-10-19T11:04:17.278Z,5.37
2017-10-19T11:06:46.492Z,16.93
2017-10-19T11:09:27.093Z,18.87
2017-10-19T11:11:56.188Z,3.83
2017-10-19T11:14:25.282Z,5.47
2017-10-19T11:16:54.608Z,9.83
2017-10-19T11:19:24.249Z,11.30
2017-10-19T11:22:07.202Z,10.20
2017-10-19T11:24:36.309Z,16.80
2017-10-19T11:27:05.512Z,36.87
2017-10-19T11:29:34.948Z,19.30
2017-10-19T11:32:04.235Z,14.83
2017-10-19T11:34:33.292Z,26.03
2017-10-19T11:37:02.396Z,3.47
2017-10-19T11:39:32.316Z,9.97
2017-10-19T11:42:01.407Z,9.70
2017-10-19T11:44:37.099Z,11.00
2017-10-19T11:47:06.192Z,17.33
2017-10-19T11:49:35.341Z,7.13
2017-10-19T11:52:04.482Z,14.43
2017-10-19T11:54:33.564Z,28.00
2017-10-19T11:57:14.970Z,11.33
2017-10-19T11:59:44.377Z,31.20
2017-10-19T12:02:13.469Z,10.80
2017-10-19T12:04:42.544Z,10.83
2017-10-19T12:07:12.380Z,12.63
2017-10-19T12:09:43.143Z,15.23
2017-10-19T12:12:12.332Z,34.97
2017-10-19T12:14:41.537Z,19.13
2017-10-19T12:17:11.807Z,7.60
2017-10-19T12:19:41.844Z,8.13
2017-10-19T12:22:11.148Z,8.40
2017-10-19T12:24:46.556Z,3.90
2017-10-19T12:27:15.908Z,6.90
2017-10-19T12:29:45.015Z,18.20
2017-10-19T12:32:14.094Z,28.63
2017-10-19T12:34:43.407Z,5.77
2017-10-19T12:37:12.775Z,2.43
2017-10-19T12:39:41.872Z,4.63
2017-10-19T12:42:11.101Z,2.20
2017-10-19T12:44:40.222Z,1.70
2017-10-19T12:47:09.321Z,3.10
2017-10-19T12:49:38.432Z,3.50
2017-10-19T12:52:07.530Z,1.93
2017-10-19T12:54:37.104Z,3.80
2017-10-19T12:57:07.036Z,4.37
2017-10-19T12:59:36.125Z,11.20
2017-10-19T13:02:11.596Z,11.20
2017-10-19T13:04:40.964Z,4.30
2017-10-19T13:07:10.092Z,6.63
2017-10-19T13:09:39.471Z,4.77
2017-10-19T13:12:08.776Z,10.20
2017-10-19T13:14:39.675Z,4.50
2017-10-19T13:17:08.938Z,2.40
2017-10-19T13:19:38.552Z,3.90
2017-10-19T13:22:07.989Z,2.60
2017-10-19T13:24:37.466Z,3.23
2017-10-19T13:27:08.249Z,4.67
2017-10-19T13:29:41.053Z,11.97
2017-10-19T13:32:10.640Z,3.53
2017-10-19T13:34:40.226Z,3.90
2017-10-19T13:37:09.624Z,4.33
2017-10-19T13:39:39.101Z,4.47
2017-10-19T13:42:08.593Z,4.53
2017-10-19T13:44:45.160Z,3.87
2017-10-19T13:47:14.640Z,2.40
2017-10-19T13:49:51.378Z,3.07
2017-10-19T13:52:22.176Z,1.57
2017-10-19T13:54:58.852Z,3.47
2017-10-19T13:57:34.164Z,3.97
2017-10-19T14:00:21.727Z,7.10
2017-10-19T14:02:51.270Z,2.27
2017-10-19T14:05:50.935Z,10.73
2017-10-19T14:08:23.569Z,3.43
2017-10-19T14:10:53.860Z,8.40
2017-10-19T14:13:48.763Z,6.40
2017-10-19T14:16:29.790Z,2.43
2017-10-19T14:18:59.763Z,2.07
2017-10-19T14:21:31.641Z,5.03
2017-10-19T14:24:01.266Z,1.53
2017-10-19T14:26:30.717Z,4.40
2017-10-19T14:29:01.707Z,5.80
2017-10-19T14:31:33.888Z,12.17
2017-10-19T14:34:03.130Z,2.60
2017-10-19T14:36:32.384Z,4.30
2017-10-19T14:39:08.588Z,4.77
2017-10-19T14:41:37.676Z,14.23
2017-10-19T14:44:06.915Z,3.60
2017-10-19T14:46:36.473Z,2.70
2017-10-19T14:49:05.989Z,3.00
2017-10-19T14:51:35.846Z,3.30
2017-10-19T14:54:04.941Z,1.87
2017-10-19T14:56:35.680Z,3.27
2017-10-19T14:59:04.880Z,2.57
2017-10-19T15:01:34.091Z,3.53
2017-10-19T15:04:03.608Z,2.60
2017-10-19T15:06:32.672Z,2.20
2017-10-19T15:09:02.253Z,4.07
2017-10-19T15:11:31.328Z,7.93
2017-10-19T15:14:00.689Z,9.20
2017-10-19T15:16:29.948Z,4.00
2017-10-19T15:18:59.506Z,3.73
2017-10-19T15:21:29.050Z,1.60
2017-10-19T15:24:04.240Z,5.53
2017-10-19T15:26:33.898Z,2.80
2017-10-19T15:29:06.557Z,2.13
2017-10-19T15:31:35.760Z,4.90
2017-10-19T15:34:12.609Z,7.73
2017-10-19T15:36:42.217Z,4.50
2017-10-19T15:39:11.720Z,2.20
2017-10-19T15:41:40.783Z,1.77
2017-10-19T15:44:10.059Z,4.03
2017-10-19T15:46:39.362Z,2.20
2017-10-19T15:49:18.258Z,5.17
2017-10-19T15:51:47.469Z,1.50
2017-10-19T15:54:16.761Z,1.60
2017-10-19T15:56:46.273Z,3.50
2017-10-19T15:59:15.382Z,2.67
2017-10-19T16:01:47.620Z,1.00
2017-10-19T16:04:18.216Z,1.27
2017-10-19T16:06:47.715Z,1.10
2017-10-19T16:09:18.404Z,0.90
2017-10-19T16:11:48.464Z,1.87
2017-10-19T16:14:17.742Z,1.20
2017-10-19T16:16:47.125Z,1.47
2017-10-19T16:21:58.917Z,1.00
2017-10-19T16:24:36.259Z,1.40
2017-10-19T16:32:27.246Z,5.17
2017-10-19T16:34:56.391Z,2.47
2017-10-19T16:37:42.727Z,9.37
2017-10-19T16:40:11.872Z,2.47
2017-10-19T16:42:41.247Z,3.77
2017-10-19T16:45:24.210Z,2.07
2017-10-19T16:47:58.146Z,1.60
2017-10-19T16:50:35.985Z,5.83
2017-10-19T16:53:08.492Z,5.47
2017-10-19T16:55:37.821Z,6.33
2017-10-19T16:58:15.691Z,2.73
2017-10-19T17:00:45.306Z,4.00
2017-10-19T17:03:22.029Z,7.23
2017-10-19T17:05:51.634Z,8.13
2017-10-19T17:08:34.100Z,5.57
2017-10-19T17:11:03.370Z,5.60
2017-10-19T17:13:36.231Z,24.30
2017-10-19T17:16:08.424Z,19.57
2017-10-19T17:18:51.741Z,10.97
2017-10-19T17:21:22.600Z,15.80
2017-10-19T17:23:56.023Z,4.63
2017-10-19T17:26:32.856Z,17.63
2017-10-19T17:29:02.862Z,2.87
2017-10-19T17:31:39.054Z,7.50
2017-10-19T17:34:09.389Z,4.00
2017-10-19T17:36:55.155Z,6.83
2017-10-19T17:39:38.099Z,4.90
2017-10-19T17:42:07.744Z,8.33
2017-10-19T17:44:37.242Z,6.10
2017-10-19T17:47:07.159Z,6.50
2017-10-19T17:49:38.792Z,6.10
2017-10-19T17:52:08.821Z,5.63
2017-10-19T17:54:54.245Z,6.80
2017-10-19T18:00:14.502Z,5.00
2017-10-19T18:02:44.004Z,14.17
2017-10-19T18:05:14.130Z,3.97
2017-10-19T18:07:44.038Z,13.93
2017-10-19T18:10:23.016Z,12.23
2017-10-19T18:12:53.022Z,8.37
2017-10-19T18:15:24.216Z,9.43
2017-10-19T18:17:55.807Z,13.87
2017-10-19T18:20:25.606Z,12.97
2017-10-19T18:23:01.934Z,9.23
2017-10-19T18:25:45.025Z,12.23
2017-10-19T18:28:14.467Z,9.23
2017-10-19T18:30:46.934Z,12.63
2017-10-19T18:33:16.740Z,10.33
2017-10-19T18:35:47.408Z,12.97
2017-10-19T18:38:17.007Z,26.23
2017-10-19T18:43:20.337Z,9.60
2017-10-19T18:45:53.126Z,10.27
2017-10-19T18:48:23.146Z,11.27
2017-10-19T18:50:52.925Z,12.70
2017-10-19T18:53:24.390Z,14.73
2017-10-19T18:55:54.676Z,11.00
2017-10-19T18:58:55.429Z,11.70
2017-10-19T19:01:25.729Z,13.50
2017-10-19T19:03:55.339Z,11.73
2017-10-19T19:06:25.337Z,15.00
2017-10-19T19:08:56.499Z,28.47
2017-10-19T19:11:26.033Z,25.43
2017-10-19T19:13:55.547Z,17.40
2017-10-19T19:16:26.002Z,12.93
2017-10-19T19:18:56.078Z,12.23
2017-10-19T19:23:59.366Z,25.77
2017-10-19T19:26:41.126Z,17.80
2017-10-19T19:29:10.773Z,18.97
2017-10-19T19:31:40.544Z,17.20
2017-10-19T19:34:09.952Z,3.83
2017-10-19T19:36:39.362Z,5.93
2017-10-19T19:39:17.992Z,7.27
2017-10-19T19:41:47.384Z,12.80
2017-10-19T19:44:16.933Z,6.00
2017-10-19T19:46:46.556Z,9.87
2017-10-19T19:49:16.773Z,7.40
2017-10-19T19:51:46.531Z,10.87
2017-10-19T19:56:53.255Z,12.03
2017-10-19T20:01:57.430Z,5.07
2017-10-19T20:04:34.405Z,6.93
2017-10-19T20:07:04.411Z,8.97
2017-10-19T20:09:35.550Z,10.83
2017-10-19T20:12:05.058Z,7.47
2017-10-19T20:14:34.885Z,9.20
2017-10-19T20:19:58.085Z,9.00
2017-10-19T20:22:34.764Z,5.63
2017-10-19T20:25:10.378Z,5.43
2017-10-19T20:27:46.977Z,7.33
2017-10-19T20:30:16.629Z,5.70
2017-10-19T20:32:46.191Z,3.43
2017-10-19T20:35:15.961Z,3.50
2017-10-19T20:37:49.083Z,4.17
2017-10-19T20:40:18.497Z,8.87
2017-10-19T20:43:01.581Z,5.47
2017-10-19T20:45:31.633Z,4.50
2017-10-19T20:48:01.259Z,3.93
2017-10-19T20:50:37.259Z,2.80
2017-10-19T20:53:06.905Z,6.77
2017-10-19T20:55:37.628Z,7.57
2017-10-19T20:58:07.607Z,5.23
2017-10-19T21:00:37.912Z,6.83
2017-10-19T21:03:09.107Z,5.60
2017-10-19T21:05:38.713Z,3.07
2017-10-19T21:08:08.352Z,4.27
2017-10-19T21:10:38.061Z,5.47
2017-10-19T21:13:07.708Z,3.50
2017-10-19T21:15:37.490Z,2.97
2017-10-19T21:18:06.869Z,2.93
2017-10-19T21:20:36.959Z,8.20
2017-10-19T21:23:19.010Z,5.63
2017-10-19T21:25:50.622Z,4.10
2017-10-19T21:28:36.680Z,2.17
2017-10-19T21:33:49.548Z,5.70
2017-10-19T21:36:23.139Z,2.13
2017-10-19T21:38:52.251Z,3.07
2017-10-19T21:41:21.396Z,2.13
2017-10-19T21:46:32.273Z,4.07
2017-10-19T21:49:02.983Z,8.10
2017-10-19T21:54:05.986Z,8.80
2017-10-19T21:59:20.459Z,2.70
2017-10-19T22:04:38.159Z,9.63
2017-10-19T22:07:07.381Z,3.37
2017-10-19T22:15:03.370Z,6.13
2017-10-19T22:17:33.172Z,2.93
2017-10-19T22:23:02.929Z,10.03
2017-10-19T22:25:33.184Z,6.20
2017-10-19T22:30:47.805Z,3.77
2017-10-19T22:36:20.352Z,2.27
2017-10-19T22:54:14.810Z,16.30
2017-10-19T22:56:58.518Z,5.17
2017-10-19T22:59:27.680Z,7.13
2017-10-19T23:01:56.910Z,4.27
2017-10-19T23:04:26.026Z,2.90
2017-10-19T23:06:55.463Z,12.60
2017-10-19T23:09:24.667Z,4.63
2017-10-19T23:11:54.062Z,6.00
2017-10-19T23:14:26.452Z,4.00
2017-10-19T23:17:00.824Z,5.67
2017-10-19T23:19:30.027Z,4.67
2017-10-19T23:21:59.542Z,12.23
2017-10-19T23:24:28.756Z,7.07
2017-10-19T23:27:04.565Z,4.83
2017-10-19T23:29:48.884Z,3.70
2017-10-19T23:32:18.061Z,3.47
2017-10-19T23:34:47.185Z,4.03
2017-10-19T23:37:16.368Z,2.03
2017-10-19T23:39:45.552Z,5.93
2017-10-19T23:42:27.919Z,7.33
2017-10-19T23:44:57.129Z,2.57
2017-10-19T23:47:26.332Z,3.43
2017-10-19T23:50:08.770Z,2.43
2017-10-19T23:52:44.414Z,2.00
2017-10-19T23:55:20.202Z,5.77
2017-10-19T23:57:49.634Z,4.27
